createdAt,value
2018-09-09T00:02:08.134Z,10.33
2018-09-09T00:05:17.302Z,10.80
2018-09-09T00:08:26.642Z,11.47
2018-09-09T00:11:36.021Z,11.33
2018-09-09T00:14:45.382Z,10.77
2018-09-09T00:17:54.706Z,10.53
2018-09-09T00:21:04.081Z,9.43
2018-09-09T00:24:13.791Z,9.87
2018-09-09T00:27:22.906Z,11.10
2018-09-09T00:30:32.149Z,12.30
2018-09-09T00:33:41.585Z,12.70
2018-09-09T00:36:51.122Z,11.80
2018-09-09T00:40:00.462Z,10.37
2018-09-09T00:43:09.897Z,10.40
2018-09-09T00:46:19.901Z,10.03
2018-09-09T00:49:34.549Z,9.63
2018-09-09T00:52:49.121Z,9.60
2018-09-09T00:55:58.302Z,9.70
2018-09-09T00:59:07.557Z,9.50
2018-09-09T01:02:16.975Z,9.03
2018-09-09T01:05:26.865Z,13.73
2018-09-09T01:08:36.035Z,9.07
2018-09-09T01:11:45.295Z,9.73
2018-09-09T01:14:54.413Z,9.90
2018-09-09T01:18:03.857Z,8.50
2018-09-09T01:21:13.191Z,8.43
2018-09-09T01:24:22.622Z,8.60
2018-09-09T01:27:31.713Z,8.20
2018-09-09T01:30:41.158Z,7.10
2018-09-09T01:33:50.479Z,7.07
2018-09-09T01:36:59.845Z,7.37
2018-09-09T01:40:09.105Z,7.53
2018-09-09T01:43:18.397Z,10.03
2018-09-09T01:46:27.561Z,9.40
2018-09-09T01:49:37.017Z,6.07
2018-09-09T01:52:46.279Z,6.17
2018-09-09T01:55:55.688Z,6.23
2018-09-09T01:59:04.873Z,6.30
2018-09-09T02:02:14.153Z,6.40
2018-09-09T02:05:23.489Z,6.30
2018-09-09T02:08:32.775Z,5.73
2018-09-09T02:11:42.040Z,5.90
2018-09-09T02:14:51.397Z,5.50
2018-09-09T02:18:00.734Z,5.40
2018-09-09T02:21:10.017Z,4.83
2018-09-09T02:24:19.405Z,4.80
2018-09-09T02:27:28.622Z,5.47
2018-09-09T02:30:38.090Z,4.97
2018-09-09T02:33:47.495Z,4.97
2018-09-09T02:36:56.904Z,7.53
2018-09-09T02:40:06.155Z,6.47
2018-09-09T02:43:15.302Z,5.50
2018-09-09T02:46:24.723Z,5.30
2018-09-09T02:49:33.805Z,5.37
2018-09-09T02:52:43.486Z,4.70
2018-09-09T02:55:52.644Z,4.73
2018-09-09T02:59:02.690Z,6.10
2018-09-09T03:02:12.066Z,5.10
2018-09-09T03:05:21.286Z,10.67
2018-09-09T03:08:30.943Z,6.47
2018-09-09T03:11:40.218Z,9.07
2018-09-09T03:14:49.311Z,5.33
2018-09-09T03:17:58.614Z,4.37
2018-09-09T03:21:07.879Z,4.57
2018-09-09T03:24:17.078Z,4.97
2018-09-09T03:27:26.372Z,5.23
2018-09-09T03:30:35.644Z,4.53
2018-09-09T03:33:45.818Z,4.87
2018-09-09T03:36:55.192Z,4.47
2018-09-09T03:40:04.354Z,4.03
2018-09-09T03:43:13.627Z,6.53
2018-09-09T03:46:22.974Z,4.27
2018-09-09T03:49:32.707Z,6.00
2018-09-09T03:52:42.071Z,5.53
2018-09-09T03:55:52.160Z,4.53
2018-09-09T03:59:01.552Z,4.77
2018-09-09T04:02:10.761Z,4.67
2018-09-09T04:05:20.023Z,5.17
2018-09-09T04:08:29.298Z,4.20
2018-09-09T04:11:38.564Z,5.03
2018-09-09T04:14:47.657Z,7.03
2018-09-09T04:17:56.839Z,6.23
2018-09-09T04:21:06.093Z,5.03
2018-09-09T04:24:15.414Z,6.23
2018-09-09T04:27:24.617Z,6.33
2018-09-09T04:30:33.970Z,6.23
2018-09-09T04:33:43.263Z,6.03
2018-09-09T04:36:52.646Z,6.07
2018-09-09T04:40:01.981Z,6.03
2018-09-09T04:43:11.145Z,5.67
2018-09-09T04:46:20.426Z,6.40
2018-09-09T04:49:29.681Z,6.33
2018-09-09T04:52:38.861Z,6.40
2018-09-09T04:55:48.259Z,5.63
2018-09-09T04:58:57.495Z,5.17
2018-09-09T05:02:06.682Z,5.80
2018-09-09T05:05:15.757Z,5.73
2018-09-09T05:08:25.091Z,5.70
2018-09-09T05:11:34.386Z,6.00
2018-09-09T05:14:43.506Z,5.57
2018-09-09T05:17:52.781Z,12.93
2018-09-09T05:21:02.221Z,5.67
2018-09-09T05:24:11.454Z,5.93
2018-09-09T05:27:20.798Z,6.57
2018-09-09T05:30:29.926Z,6.07
2018-09-09T05:33:39.167Z,5.80
2018-09-09T05:36:48.484Z,6.23
2018-09-09T05:39:57.807Z,5.77
2018-09-09T05:43:07.189Z,5.60
2018-09-09T05:46:16.503Z,5.63
2018-09-09T05:49:25.797Z,5.87
2018-09-09T05:52:35.095Z,5.47
2018-09-09T05:55:44.420Z,5.80
2018-09-09T05:58:53.689Z,5.20
2018-09-09T06:02:03.006Z,5.10
2018-09-09T06:05:12.141Z,19.57
2018-09-09T06:08:21.455Z,4.90
2018-09-09T06:11:30.895Z,5.27
2018-09-09T06:14:40.137Z,5.00
2018-09-09T06:17:49.509Z,15.60
2018-09-09T06:20:58.790Z,5.83
2018-09-09T06:24:08.021Z,5.00
2018-09-09T06:27:17.212Z,10.30
2018-09-09T06:30:26.317Z,6.77
2018-09-09T06:33:35.706Z,5.30
2018-09-09T06:36:45.170Z,5.20
2018-09-09T06:39:54.401Z,6.13
2018-09-09T06:43:03.751Z,5.33
2018-09-09T06:46:12.992Z,5.17
2018-09-09T06:49:22.320Z,5.40
2018-09-09T06:52:31.737Z,5.23
2018-09-09T06:55:41.073Z,4.87
2018-09-09T06:58:50.349Z,5.23
2018-09-09T07:01:59.542Z,5.00
2018-09-09T07:05:08.759Z,4.63
2018-09-09T07:08:17.932Z,4.77
2018-09-09T07:11:27.434Z,5.43
2018-09-09T07:14:36.547Z,5.27
2018-09-09T07:17:45.823Z,5.70
2018-09-09T07:20:55.216Z,4.90
2018-09-09T07:24:04.437Z,5.57
2018-09-09T07:27:13.786Z,5.30
2018-09-09T07:30:23.194Z,5.40
2018-09-09T07:33:32.532Z,5.43
2018-09-09T07:36:41.797Z,5.28
2018-09-09T07:39:51.062Z,5.58
2018-09-09T07:43:00.173Z,5.40
2018-09-09T07:46:09.538Z,4.92
2018-09-09T07:49:18.694Z,16.70
2018-09-09T07:52:34.869Z,5.12
2018-09-09T07:55:44.259Z,4.80
2018-09-09T07:58:53.590Z,5.10
2018-09-09T08:02:02.787Z,4.97
2018-09-09T08:05:12.095Z,4.53
2018-09-09T08:08:28.256Z,4.50
2018-09-09T08:11:38.566Z,4.87
2018-09-09T08:14:47.785Z,4.75
2018-09-09T08:17:57.236Z,4.05
2018-09-09T08:21:06.489Z,5.45
2018-09-09T08:24:15.675Z,4.37
2018-09-09T08:27:24.985Z,3.95
2018-09-09T08:30:34.275Z,3.65
2018-09-09T08:33:43.610Z,3.70
2018-09-09T08:36:52.837Z,3.77
2018-09-09T08:40:02.189Z,3.83
2018-09-09T08:43:11.411Z,4.75
2018-09-09T08:46:21.497Z,23.85
2018-09-09T08:49:30.760Z,3.50
2018-09-09T08:52:40.139Z,3.65
2018-09-09T08:55:49.232Z,3.70
2018-09-09T08:58:58.465Z,3.87
2018-09-09T09:02:07.684Z,3.40
2018-09-09T09:05:16.980Z,3.20
2018-09-09T09:08:26.170Z,3.02
2018-09-09T09:11:35.321Z,2.85
2018-09-09T09:14:44.672Z,3.60
2018-09-09T09:17:53.893Z,3.60
2018-09-09T09:21:03.291Z,3.10
2018-09-09T09:24:12.544Z,3.52
2018-09-09T09:27:21.686Z,3.20
2018-09-09T09:30:30.925Z,2.87
2018-09-09T09:33:40.074Z,2.92
2018-09-09T09:36:49.190Z,2.72
2018-09-09T09:39:58.357Z,2.58
2018-09-09T09:43:07.630Z,2.90
2018-09-09T09:46:17.068Z,4.67
2018-09-09T09:49:26.393Z,2.35
2018-09-09T09:52:35.572Z,2.50
2018-09-09T09:55:44.966Z,2.60
2018-09-09T09:58:54.267Z,2.60
2018-09-09T10:02:03.727Z,2.75
2018-09-09T10:05:13.021Z,2.58
2018-09-09T10:08:22.570Z,2.60
2018-09-09T10:11:32.009Z,2.65
2018-09-09T10:14:41.329Z,2.62
2018-09-09T10:17:50.648Z,2.60
2018-09-09T10:20:59.792Z,2.50
2018-09-09T10:24:09.130Z,3.27
2018-09-09T10:27:18.393Z,3.25
2018-09-09T10:30:27.705Z,2.67
2018-09-09T10:33:37.157Z,2.80
2018-09-09T10:36:46.423Z,2.37
2018-09-09T10:39:55.809Z,3.27
2018-09-09T10:43:05.232Z,2.37
2018-09-09T10:46:14.557Z,2.45
2018-09-09T10:49:23.868Z,2.35
2018-09-09T10:52:33.171Z,2.58
2018-09-09T10:55:42.417Z,2.40
2018-09-09T10:58:51.863Z,3.42
2018-09-09T11:02:01.239Z,2.60
2018-09-09T11:05:11.072Z,2.52
2018-09-09T11:08:20.529Z,4.28
2018-09-09T11:11:29.783Z,2.27
2018-09-09T11:14:38.989Z,2.40
2018-09-09T11:17:48.362Z,2.10
2018-09-09T11:20:57.708Z,2.37
2018-09-09T11:24:07.224Z,2.27
2018-09-09T11:27:16.572Z,4.17
2018-09-09T11:30:25.901Z,2.95
2018-09-09T11:33:35.148Z,2.27
2018-09-09T11:36:44.519Z,2.85
2018-09-09T11:39:53.918Z,3.42
2018-09-09T11:43:03.171Z,2.83
2018-09-09T11:46:12.599Z,3.02
2018-09-09T11:49:21.935Z,2.60
2018-09-09T11:52:31.597Z,6.53
2018-09-09T11:55:41.064Z,2.27
2018-09-09T11:58:50.346Z,3.17
2018-09-09T12:01:59.602Z,2.00
2018-09-09T12:05:08.856Z,2.12
2018-09-09T12:08:18.130Z,2.62
2018-09-09T12:11:27.641Z,2.60
2018-09-09T12:14:36.952Z,2.30
2018-09-09T12:17:46.191Z,2.35
2018-09-09T12:20:55.277Z,4.90
2018-09-09T12:24:04.355Z,2.50
2018-09-09T12:27:14.374Z,2.35
2018-09-09T12:30:23.705Z,2.10
2018-09-09T12:33:32.862Z,1.98
2018-09-09T12:36:42.106Z,2.15
2018-09-09T12:39:51.460Z,2.35
2018-09-09T12:43:06.262Z,2.72
2018-09-09T12:46:20.810Z,2.20
2018-09-09T12:49:30.184Z,2.60
2018-09-09T12:52:40.175Z,2.30
2018-09-09T12:55:49.576Z,2.92
2018-09-09T12:58:59.090Z,2.60
2018-09-09T13:02:08.550Z,2.42
2018-09-09T13:05:17.870Z,3.22
2018-09-09T13:08:28.125Z,2.37
2018-09-09T13:11:37.434Z,2.20
2018-09-09T13:14:46.673Z,2.05
2018-09-09T13:17:55.816Z,2.45
2018-09-09T13:21:04.997Z,2.12
2018-09-09T13:24:14.181Z,3.00
2018-09-09T13:27:23.335Z,4.05
2018-09-09T13:30:32.742Z,2.45
2018-09-09T13:33:41.957Z,3.33
2018-09-09T13:36:51.184Z,2.83
2018-09-09T13:40:00.369Z,2.80
2018-09-09T13:43:09.629Z,2.08
2018-09-09T13:46:18.819Z,2.20
2018-09-09T13:49:27.971Z,2.62
2018-09-09T13:52:37.293Z,2.10
2018-09-09T13:55:46.749Z,2.90
2018-09-09T13:58:55.901Z,2.50
2018-09-09T14:02:05.101Z,2.45
2018-09-09T14:05:14.537Z,2.62
2018-09-09T14:08:23.873Z,3.92
2018-09-09T14:11:33.215Z,3.08
2018-09-09T14:14:42.645Z,3.33
2018-09-09T14:17:51.888Z,2.33
2018-09-09T14:21:01.138Z,2.60
2018-09-09T14:24:10.465Z,3.40
2018-09-09T14:27:19.843Z,3.02
2018-09-09T14:30:29.214Z,3.37
2018-09-09T14:33:38.539Z,2.70
2018-09-09T14:36:47.785Z,2.80
2018-09-09T14:39:56.974Z,3.33
2018-09-09T14:43:06.461Z,3.40
2018-09-09T14:46:15.655Z,4.08
2018-09-09T14:49:24.947Z,3.05
2018-09-09T14:52:34.274Z,2.87
2018-09-09T14:55:43.565Z,2.65
2018-09-09T14:58:53.101Z,3.33
2018-09-09T15:02:02.482Z,5.10
2018-09-09T15:05:11.677Z,2.92
2018-09-09T15:08:20.854Z,4.10
2018-09-09T15:11:30.260Z,3.05
2018-09-09T15:14:39.446Z,2.92
2018-09-09T15:17:48.855Z,3.77
2018-09-09T15:20:58.077Z,3.40
2018-09-09T15:24:07.313Z,2.77
2018-09-09T15:27:16.675Z,2.60
2018-09-09T15:30:25.949Z,3.67
2018-09-09T15:33:35.166Z,2.70
2018-09-09T15:36:44.457Z,3.22
2018-09-09T15:39:53.910Z,2.30
2018-09-09T15:43:03.103Z,2.10
2018-09-09T15:46:12.380Z,3.05
2018-09-09T15:49:21.593Z,3.20
2018-09-09T15:52:30.993Z,2.45
2018-09-09T15:55:40.169Z,3.80
2018-09-09T15:58:49.619Z,2.22
2018-09-09T16:01:58.707Z,2.55
2018-09-09T16:05:08.410Z,4.55
2018-09-09T16:08:17.879Z,2.65
2018-09-09T16:11:27.215Z,4.30
2018-09-09T16:14:36.323Z,2.77
2018-09-09T16:17:45.587Z,3.62
2018-09-09T16:20:54.739Z,3.05
2018-09-09T16:24:04.008Z,2.50
2018-09-09T16:27:13.423Z,2.67
2018-09-09T16:30:22.763Z,2.50
2018-09-09T16:33:32.263Z,3.65
2018-09-09T16:36:41.598Z,3.35
2018-09-09T16:39:50.851Z,2.90
2018-09-09T16:43:00.027Z,4.03
2018-09-09T16:46:09.683Z,3.05
2018-09-09T16:49:19.844Z,2.67
2018-09-09T16:52:29.096Z,4.35
2018-09-09T16:55:38.465Z,3.50
2018-09-09T16:58:47.637Z,3.77
2018-09-09T17:01:56.867Z,4.62
2018-09-09T17:05:06.207Z,4.55
2018-09-09T17:08:15.408Z,5.92
2018-09-09T17:11:24.669Z,4.62
2018-09-09T17:14:34.031Z,5.12
2018-09-09T17:17:44.058Z,5.67
2018-09-09T17:20:53.431Z,3.50
2018-09-09T17:24:02.662Z,3.35
2018-09-09T17:27:11.954Z,3.42
2018-09-09T17:30:21.166Z,3.83
2018-09-09T17:33:30.459Z,3.33
2018-09-09T17:36:39.839Z,3.45
2018-09-09T17:39:48.993Z,4.65
2018-09-09T17:42:58.264Z,3.92
2018-09-09T17:46:07.604Z,4.00
2018-09-09T17:49:16.793Z,4.03
2018-09-09T17:52:26.095Z,4.60
2018-09-09T17:55:35.219Z,5.15
2018-09-09T17:58:44.594Z,4.77
2018-09-09T18:01:53.772Z,14.33
2018-09-09T18:05:02.950Z,6.07
2018-09-09T18:08:12.445Z,5.73
2018-09-09T18:11:21.705Z,6.80
2018-09-09T18:14:30.963Z,8.00
2018-09-09T18:17:40.558Z,8.70
2018-09-09T18:20:49.686Z,10.70
2018-09-09T18:23:58.912Z,6.47
2018-09-09T18:27:08.359Z,6.37
2018-09-09T18:30:17.479Z,7.07
2018-09-09T18:33:26.851Z,9.10
2018-09-09T18:36:36.215Z,11.90
2018-09-09T18:39:45.945Z,31.17
2018-09-09T18:42:55.206Z,55.67
2018-09-09T18:46:04.414Z,20.97
2018-09-09T18:49:13.580Z,12.73
2018-09-09T18:52:22.732Z,11.07
2018-09-09T18:55:32.110Z,10.40
2018-09-09T18:58:41.908Z,10.93
2018-09-09T19:01:51.306Z,10.57
2018-09-09T19:05:01.307Z,11.10
2018-09-09T19:08:10.562Z,9.53
2018-09-09T19:11:19.935Z,9.40
2018-09-09T19:14:29.219Z,9.77
2018-09-09T19:17:38.508Z,20.93
2018-09-09T19:20:47.933Z,17.10
2018-09-09T19:23:57.378Z,12.97
2018-09-09T19:27:06.576Z,6.70
2018-09-09T19:30:16.003Z,8.03
2018-09-09T19:33:25.279Z,8.10
2018-09-09T19:36:34.697Z,8.60
2018-09-09T19:39:44.059Z,20.17
2018-09-09T19:42:53.269Z,9.07
2018-09-09T19:46:02.721Z,13.20
2018-09-09T19:49:11.914Z,8.63
2018-09-09T19:52:21.195Z,8.60
2018-09-09T19:55:30.310Z,13.00
2018-09-09T19:58:39.493Z,11.13
2018-09-09T20:01:48.629Z,9.90
2018-09-09T20:04:57.838Z,10.63
2018-09-09T20:08:07.049Z,12.07
2018-09-09T20:11:16.534Z,12.13
2018-09-09T20:14:25.632Z,12.07
2018-09-09T20:17:34.943Z,11.00
2018-09-09T20:20:44.109Z,9.93
2018-09-09T20:23:53.384Z,10.03
2018-09-09T20:27:02.681Z,7.10
2018-09-09T20:30:12.006Z,9.43
2018-09-09T20:33:21.394Z,9.70
2018-09-09T20:36:30.802Z,8.57
2018-09-09T20:39:40.062Z,29.13
2018-09-09T20:42:49.567Z,8.23
2018-09-09T20:45:58.817Z,18.93
2018-09-09T20:49:08.232Z,10.90
2018-09-09T20:52:17.557Z,12.47
2018-09-09T20:55:26.795Z,13.37
2018-09-09T20:58:36.206Z,15.37
2018-09-09T21:01:45.793Z,15.00
2018-09-09T21:04:54.937Z,12.53
2018-09-09T21:08:04.188Z,12.30
2018-09-09T21:11:13.402Z,14.10
2018-09-09T21:14:22.597Z,16.27
2018-09-09T21:17:32.239Z,16.30
2018-09-09T21:20:41.434Z,14.57
2018-09-09T21:23:50.723Z,13.53
2018-09-09T21:26:59.909Z,11.43
2018-09-09T21:30:09.910Z,12.30
2018-09-09T21:33:20.080Z,12.33
2018-09-09T21:36:29.197Z,13.40
2018-09-09T21:39:38.594Z,11.77
2018-09-09T21:42:48.367Z,12.37
2018-09-09T21:45:57.697Z,10.23
2018-09-09T21:49:07.144Z,10.70
2018-09-09T21:52:16.312Z,8.03
2018-09-09T21:55:25.654Z,7.07
2018-09-09T21:58:34.786Z,7.03
2018-09-09T22:01:49.330Z,7.93
2018-09-09T22:04:58.496Z,7.27
2018-09-09T22:08:07.645Z,6.23
2018-09-09T22:11:16.901Z,6.33
2018-09-09T22:14:26.132Z,6.20
2018-09-09T22:17:35.516Z,6.00
2018-09-09T22:20:44.675Z,5.80
2018-09-09T22:23:53.838Z,6.13
2018-09-09T22:27:03.268Z,6.70
2018-09-09T22:30:12.454Z,6.40
2018-09-09T22:33:21.809Z,5.97
2018-09-09T22:36:31.075Z,6.53
2018-09-09T22:39:40.259Z,5.33
2018-09-09T22:42:49.601Z,5.70
2018-09-09T22:45:59.553Z,4.97
2018-09-09T22:49:08.718Z,5.17
2018-09-09T22:52:17.851Z,5.37
2018-09-09T22:55:26.996Z,5.50
2018-09-09T22:58:36.882Z,5.10
2018-09-09T23:01:46.200Z,5.20
2018-09-09T23:04:55.466Z,5.83
2018-09-09T23:08:04.770Z,6.97
2018-09-09T23:11:14.002Z,4.70
2018-09-09T23:14:23.200Z,8.47
2018-09-09T23:17:32.658Z,10.33
2018-09-09T23:20:41.827Z,6.00
2018-09-09T23:23:51.011Z,4.67
2018-09-09T23:27:00.173Z,4.70
2018-09-09T23:30:09.495Z,4.30
2018-09-09T23:33:19.120Z,4.93
2018-09-09T23:36:28.353Z,4.93
2018-09-09T23:39:37.485Z,4.93
2018-09-09T23:42:47.578Z,5.47
2018-09-09T23:45:56.878Z,4.67
2018-09-09T23:49:06.109Z,8.90
2018-09-09T23:52:15.357Z,4.80
2018-09-09T23:55:24.568Z,5.43
2018-09-09T23:58:33.830Z,5.90
